Bemidji, MN

7:24 PM CDT on July 25, 2014 (GMT -0500)
Waskish Municipal (KVWU) Elev 1181 ft | 48.15 °N, 94.52 °W | Change Station

Current weather conditions updated 10 minutes ago

Scattered Clouds
Scattered Clouds
79 °F
Feels Like 79 °F
N
0
Wind Variable Wind from North

Tomorrow is forecast to be Warmer than today.

Today
High -- | Low -- °F
--% Chance of Precip.
Yesterday
High -- | Low -- °F
Precip. -- in
5:48 AM 9:02 PM
Waning Crescent, 1% visible
Pressure 29.72 in
Visibility 10.0 miles
Clouds Scattered Clouds 6000 ft
Scattered Clouds 7500 ft
Dew Point 68 °F
Humidity 69%
Rainfall 0.00 in
Snow Depth Not available.
UV 1 out of 12
Pollen 5.90 out of 12
Air Quality Not available.
Flu Activity Not available.
METAR KVWU 260014Z AUTO 00000KT 10SM SCT060 SCT075 26/20 A2972 RMK AO2

More Conditions Fewer Conditions

Pressure 29.72 in
Visibility 10.0 miles
Clouds Scattered Clouds 6000 ft
Scattered Clouds 7500 ft
Dew Point 68 °F
Humidity 69%
Rainfall 0.00 in
Snow Depth Not available.
UV 1 out of 12
Pollen 5.90 out of 12
Air Quality Not available.
Flu Activity Not available.
METAR KVWU 260014Z AUTO 00000KT 10SM SCT060 SCT075 26/20 A2972 RMK AO2

More Conditions Fewer Conditions

10-Day Weather Forecast

Almanac

Astronomy

Jul. 25, 2014 Rise Set
Actual Time 5:48 AM CDT 9:02 PM CDT
Civil Twilight 5:11 AM CDT 9:39 PM CDT
Nautical Twilight 4:22 AM CDT 10:27 PM CDT
Astronomical Twilight 3:21 AM CDT 11:28 PM CDT
Moon 4:51 AM CDT (7/25) 7:55 PM CDT (7/25)
Length of Visible Light 16h 28m
Length of Day
15h 14m
Tomorrow will be 2m 25s shorter.
Waning Crescent, 1% of the Moon is Illuminated
Today
Waning Crescent
Jul 26
New
Aug 3
First Quarter
Aug 10
Full
Aug 17
Last Quarter

Today's Extremes

State Highs State Lows

Community

WunderPhotos

Upload Photos

1,737,451 photos uploaded!

Nearby

Snow Depth

Station Depth Elevation
No new snow has been reported.

Earthquake Activity

City Distance Mag. Time & Date
No recent earthquake activity has been reported nearby.
Minimum magnitude displayed is 2.5.

Coastal Water Temperatures

Place Temperature
No Stations Reporting

Nearby Weather Stations

Station Location Temp. Heat Index Dew Point Humidity Wind Precip. Elev Updated Type
Bemidji State University - Dept of Geogr, Bemidji, MN 76.1 °F 77 °F 69 °F 78% SSW  at  0.0 mph 0.00 in / hr 1352 ft 7:24 PM CDT Rapid Fire
Grange Rd, Bemidji, MN 73.6 °F 73 °F 69 °F 86% WNW  at  0.0 mph - / hr 1417 ft 7:23 PM CDT Normal
Turtle River TWP, Bemidji, MN 76.3 °F 77 °F 71 °F 84% South  at  1.6 mph 0.00 in / hr 1379 ft 7:24 PM CDT Rapid Fire
HADS MISSISSIPPI RIVER NEAR BEMIDJI 4 MN, Wilton, MN 76 °F 74 °F - - North  at  - 0.00 in / hr 1313 ft 6:30 PM CDT MADIS
Long Lake, Bemidji, MN 75.7 °F 76 °F 70 °F 83% SW  at  0.0 mph 0.00 in / hr 1367 ft 7:24 PM CDT Rapid Fire
RAWS CASS LAKE MN, Cass Lake, MN 76 °F 77 °F 67 °F 73% SSW  at  3 mph 0.00 in / hr 1299 ft 6:01 PM CDT MADIS

Show More Stations Show Fewer Stations